Terminal Aerodrome Forecast
Issued by NWS Norman, OK

Home | Current Version | Previous Version | Text Only | Print | Product List | Glossary On
Versions: 1 2 3 4 5 6 7 8 9 10 11 12 13 14 15 16 17 18 19 20 21 22 23 24 25 26 27 28
136
FTUS44 KOUN 261120
TAFSPS
TAF
KSPS 261120Z 2612/2712 16011KT P6SM BKN025
     FM261500 17016G22KT P6SM SCT035
     FM270000 16018G26KT P6SM BKN035 PROB30 2700/2706 TS BKN025CB
     FM270600 13010G16KT 5SM -TSRA BR OVC015CB=

USA.gov is the U.S. government's official web portal to all federal, state and local government web resources and services.